createdAt,value
2018-11-02T00:00:19.581Z,100803.48
2018-11-02T00:02:58.279Z,100808.45
2018-11-02T00:05:27.250Z,100807.53
2018-11-02T00:07:58.232Z,100813.30
2018-11-02T00:10:29.321Z,100818.52
2018-11-02T00:13:02.469Z,100825.66
2018-11-02T00:15:45.211Z,100828.58
2018-11-02T00:18:26.198Z,100835.89
2018-11-02T00:21:13.815Z,100841.36
2018-11-02T00:23:54.680Z,100833.58
2018-11-02T00:26:37.453Z,100836.73
2018-11-02T00:29:12.900Z,100838.42
2018-11-02T00:34:40.017Z,100850.19
2018-11-02T00:40:09.108Z,100845.25
2018-11-02T00:42:44.180Z,100847.57
2018-11-02T00:45:14.133Z,100852.13
2018-11-02T00:47:45.092Z,100849.91
2018-11-02T00:50:17.296Z,100849.13
2018-11-02T00:52:47.440Z,100850.50
2018-11-02T00:55:18.407Z,100839.11
2018-11-02T00:57:53.034Z,100834.23
2018-11-02T01:00:38.968Z,100841.34
2018-11-02T01:03:30.804Z,100848.98
2018-11-02T01:05:59.675Z,100859.78
2018-11-02T01:08:28.548Z,100860.29
2018-11-02T01:10:57.421Z,100870.77
2018-11-02T01:13:30.100Z,100893.60
2018-11-02T01:16:02.797Z,100894.72
2018-11-02T01:18:46.168Z,100897.41
2018-11-02T01:27:01.523Z,100914.34
2018-11-02T01:29:41.080Z,100909.03
2018-11-02T01:32:32.275Z,100909.61
2018-11-02T01:35:01.157Z,100907.53
2018-11-02T01:37:30.048Z,100908.04
2018-11-02T01:39:58.935Z,100913.20
2018-11-02T01:42:28.085Z,100917.93
2018-11-02T01:44:56.974Z,100920.12
2018-11-02T01:47:39.754Z,100927.74
2018-11-02T01:50:16.621Z,100931.17
2018-11-02T01:52:50.114Z,100921.89
2018-11-02T01:55:19.018Z,100920.39
2018-11-02T01:57:47.872Z,100917.65
2018-11-02T02:03:16.014Z,100932.23
2018-11-02T02:05:56.145Z,100927.81
2018-11-02T02:08:28.605Z,100936.28
2018-11-02T02:10:57.480Z,100941.75
2018-11-02T02:13:26.347Z,100949.30
2018-11-02T02:15:55.176Z,100955.87
2018-11-02T02:18:24.353Z,100953.95
2018-11-02T02:20:53.223Z,100962.69
2018-11-02T02:23:22.108Z,100972.13
2018-11-02T02:25:57.329Z,100963.73
2018-11-02T02:28:26.227Z,100978.32
2018-11-02T02:30:55.107Z,100976.23
2018-11-02T02:33:24.058Z,100983.44
2018-11-02T02:35:52.955Z,100987.02
2018-11-02T02:38:35.148Z,100989.10
2018-11-02T02:41:11.376Z,100990.33
2018-11-02T02:43:48.423Z,100993.37
2018-11-02T02:46:19.387Z,100989.72
2018-11-02T02:48:54.723Z,100996.14
2018-11-02T02:51:23.611Z,100994.48
2018-11-02T02:56:58.163Z,101009.61
2018-11-02T02:59:27.005Z,101013.73
2018-11-02T03:01:55.906Z,101012.77
2018-11-02T03:04:24.756Z,101014.28
2018-11-02T03:06:53.608Z,101018.55
2018-11-02T03:09:22.712Z,101029.05
2018-11-02T03:11:51.577Z,101029.36
2018-11-02T03:14:39.889Z,101040.28
2018-11-02T03:17:08.802Z,101046.45
2018-11-02T03:19:37.694Z,101051.22
2018-11-02T03:22:13.781Z,101051.22
2018-11-02T03:24:53.760Z,101054.37
2018-11-02T03:27:24.630Z,101069.33
2018-11-02T03:29:53.519Z,101067.16
2018-11-02T03:32:22.423Z,101081.08
2018-11-02T03:34:51.304Z,101072.55
2018-11-02T03:37:20.227Z,101093.14
2018-11-02T03:39:49.596Z,101088.18
2018-11-02T03:42:18.476Z,101099.48
2018-11-02T03:44:47.376Z,101110.82
2018-11-02T03:47:27.997Z,101100.80
2018-11-02T03:50:15.290Z,101109.44
2018-11-02T03:55:54.647Z,101112.22
2018-11-02T03:58:24.069Z,101124.73
2018-11-02T04:00:53.650Z,101132.81
2018-11-02T04:03:22.968Z,101137.27
2018-11-02T04:05:59.343Z,101146.66
2018-11-02T04:08:46.337Z,101143.14
2018-11-02T04:11:15.728Z,101151.45
2018-11-02T04:13:45.329Z,101153.56
2018-11-02T04:16:26.447Z,101154.41
2018-11-02T04:18:56.879Z,101154.50
2018-11-02T04:24:20.880Z,101170.52
2018-11-02T04:26:50.054Z,101168.77
2018-11-02T04:29:19.267Z,101179.81
2018-11-02T04:31:53.925Z,101187.40
2018-11-02T04:34:41.585Z,101188.12
2018-11-02T04:37:11.044Z,101200.83
2018-11-02T04:39:41.995Z,101203.38
2018-11-02T04:42:30.900Z,101213.84
2018-11-02T04:45:18.548Z,101223.53
2018-11-02T04:47:51.920Z,101232.70
2018-11-02T04:50:20.821Z,101251.58
2018-11-02T04:53:05.666Z,101252.41
2018-11-02T04:55:38.504Z,101254.27
2018-11-02T04:58:10.948Z,101253.42
2018-11-02T05:00:53.554Z,101258.49
2018-11-02T05:03:32.804Z,101257.30
2018-11-02T05:06:01.720Z,101272.92
2018-11-02T05:08:34.238Z,101280.34
2018-11-02T05:11:03.163Z,101278.61
2018-11-02T05:13:36.544Z,101279.12
2018-11-02T05:16:06.341Z,101280.63
2018-11-02T05:18:47.059Z,101294.83
2018-11-02T05:21:16.035Z,101303.34
2018-11-02T05:23:45.954Z,101316.00
2018-11-02T05:26:14.940Z,101314.01
2018-11-02T05:28:43.959Z,101322.90
2018-11-02T05:31:12.928Z,101327.06
2018-11-02T05:33:42.151Z,101324.59
2018-11-02T05:36:11.036Z,101326.42
2018-11-02T05:38:39.911Z,101334.21
2018-11-02T05:41:22.701Z,101346.73
2018-11-02T05:43:51.598Z,101350.14
2018-11-02T05:46:20.489Z,101356.19
2018-11-02T05:48:49.470Z,101358.92
2018-11-02T05:51:18.327Z,101371.31
2018-11-02T05:53:47.227Z,101373.01
2018-11-02T05:56:16.080Z,101377.68
2018-11-02T05:58:44.991Z,101380.06
2018-11-02T06:01:17.820Z,101391.45
2018-11-02T06:07:00.537Z,101399.94
2018-11-02T06:09:42.684Z,101404.38
2018-11-02T06:12:21.292Z,101408.31
2018-11-02T06:14:55.767Z,101412.67
2018-11-02T06:17:24.682Z,101423.64
2018-11-02T06:22:54.271Z,101435.22
2018-11-02T06:25:24.295Z,101431.92
2018-11-02T06:28:05.127Z,101445.07
2018-11-02T06:30:35.241Z,101453.77
2018-11-02T06:33:21.317Z,101451.69
2018-11-02T06:35:50.226Z,101463.90
2018-11-02T06:38:30.561Z,101465.36
2018-11-02T06:41:01.406Z,101475.30
2018-11-02T06:43:30.309Z,101476.04
2018-11-02T06:46:17.308Z,101486.59
2018-11-02T06:51:47.458Z,101497.25
2018-11-02T06:54:17.360Z,101510.29
2018-11-02T06:56:56.546Z,101514.54
2018-11-02T06:59:35.421Z,101513.41
2018-11-02T07:04:57.789Z,101533.06
2018-11-02T07:07:26.785Z,101530.30
2018-11-02T07:09:59.994Z,101541.03
2018-11-02T07:12:28.976Z,101547.86
2018-11-02T07:15:04.292Z,101554.59
2018-11-02T07:17:35.340Z,101556.14
2018-11-02T07:20:09.057Z,101561.05
2018-11-02T07:22:56.969Z,101573.92
2018-11-02T07:25:26.258Z,101583.28
2018-11-02T07:30:58.728Z,101591.31
2018-11-02T07:33:28.705Z,101585.16
2018-11-02T07:36:05.438Z,101588.03
2018-11-02T07:38:34.420Z,101594.17
2018-11-02T07:41:26.416Z,101606.12
2018-11-02T07:43:55.319Z,101598.33
2018-11-02T07:46:35.461Z,101619.63
2018-11-02T07:49:05.491Z,101619.54
2018-11-02T07:51:34.452Z,101617.92
2018-11-02T07:54:03.315Z,101619.14
2018-11-02T07:56:32.232Z,101630.41
2018-11-02T07:59:14.849Z,101636.47
2018-11-02T08:01:43.847Z,101646.67
2018-11-02T08:04:12.746Z,101647.42
2018-11-02T08:06:41.667Z,101643.66
2018-11-02T08:09:13.181Z,101639.94
2018-11-02T08:12:05.000Z,101645.98
2018-11-02T08:14:37.211Z,101646.80
2018-11-02T08:17:06.207Z,101650.94
2018-11-02T08:19:35.091Z,101652.61
2018-11-02T08:22:04.034Z,101649.27
2018-11-02T08:24:36.915Z,101647.09
2018-11-02T08:27:08.907Z,101654.21
2018-11-02T08:29:37.794Z,101663.11
2018-11-02T08:32:16.534Z,101667.09
2018-11-02T08:34:58.932Z,101668.50
2018-11-02T08:37:27.830Z,101672.25
2018-11-02T08:42:51.474Z,101685.67
2018-11-02T08:45:20.440Z,101684.01
2018-11-02T08:47:49.512Z,101691.87
2018-11-02T08:50:19.520Z,101693.11
2018-11-02T08:52:48.469Z,101694.14
2018-11-02T08:55:21.109Z,101689.04
2018-11-02T08:57:54.535Z,101695.71
2018-11-02T09:00:30.877Z,101693.06
2018-11-02T09:03:09.565Z,101690.28
2018-11-02T09:08:34.393Z,101695.98
2018-11-02T09:11:13.836Z,101696.99
2018-11-02T09:13:53.568Z,101707.59
2018-11-02T09:16:27.081Z,101716.92
2018-11-02T09:19:02.332Z,101713.91
2018-11-02T09:21:37.206Z,101720.75
2018-11-02T09:24:06.719Z,101725.22
2018-11-02T09:26:37.684Z,101728.59
2018-11-02T09:29:08.681Z,101729.44
2018-11-02T09:31:37.638Z,101730.08
2018-11-02T09:34:06.764Z,101729.55
2018-11-02T09:36:40.269Z,101738.92
2018-11-02T09:39:13.901Z,101733.84
2018-11-02T09:41:58.990Z,101741.34
2018-11-02T09:44:36.010Z,101746.69
2018-11-02T09:47:08.080Z,101756.41
2018-11-02T09:49:37.023Z,101755.69
2018-11-02T09:52:06.107Z,101762.22
2018-11-02T09:54:37.002Z,101769.27
2018-11-02T09:57:09.024Z,101770.74
2018-11-02T09:59:37.928Z,101783.94
2018-11-02T10:02:11.376Z,101789.25
2018-11-02T10:04:47.128Z,101794.68
2018-11-02T10:07:28.329Z,101793.11
2018-11-02T10:10:02.453Z,101804.20
2018-11-02T10:12:39.278Z,101795.92
2018-11-02T10:15:24.692Z,101799.41
2018-11-02T10:20:59.336Z,101810.38
2018-11-02T10:23:38.820Z,101805.89
2018-11-02T10:26:11.685Z,101802.56
2018-11-02T10:28:42.648Z,101803.77
2018-11-02T10:31:16.928Z,101808.53
2018-11-02T10:33:45.825Z,101808.36
2018-11-02T10:36:14.711Z,101818.30
2018-11-02T10:38:48.557Z,101814.88
2018-11-02T10:41:26.141Z,101816.02
2018-11-02T10:43:57.058Z,101813.61
2018-11-02T10:46:30.592Z,101812.90
2018-11-02T10:49:01.572Z,101826.28
2018-11-02T10:51:32.572Z,101825.25
2018-11-02T10:54:05.350Z,101820.73
2018-11-02T10:56:44.481Z,101818.80
2018-11-02T10:59:25.043Z,101826.38
2018-11-02T11:01:59.244Z,101829.15
2018-11-02T11:04:30.206Z,101835.61
2018-11-02T11:07:00.200Z,101838.31
2018-11-02T11:09:30.117Z,101843.31
2018-11-02T11:12:02.815Z,101845.20
2018-11-02T11:14:31.976Z,101840.22
2018-11-02T11:17:01.000Z,101849.55
2018-11-02T11:19:30.884Z,101850.19
2018-11-02T11:21:59.792Z,101845.48
2018-11-02T11:24:51.180Z,101850.77
2018-11-02T11:27:26.446Z,101851.80
2018-11-02T11:29:58.577Z,101856.48
2018-11-02T11:32:27.491Z,101859.08
2018-11-02T11:34:56.406Z,101863.78
2018-11-02T11:37:25.306Z,101861.48
2018-11-02T11:39:54.727Z,101867.94
2018-11-02T11:42:24.063Z,101870.33
2018-11-02T11:44:56.652Z,101866.26
2018-11-02T11:47:30.909Z,101867.21
2018-11-02T11:50:00.001Z,101858.89
2018-11-02T11:52:29.509Z,101868.34
2018-11-02T11:54:59.714Z,101858.58
2018-11-02T11:57:30.057Z,101857.44
2018-11-02T12:00:00.358Z,101861.69
2018-11-02T12:02:29.932Z,101862.64
2018-11-02T12:04:59.310Z,101861.58
2018-11-02T12:07:28.672Z,101868.23
2018-11-02T12:09:58.381Z,101870.80
2018-11-02T12:12:28.309Z,101874.73
2018-11-02T12:14:57.736Z,101876.96
2018-11-02T12:17:27.720Z,101880.31
2018-11-02T12:19:57.008Z,101882.24
2018-11-02T12:22:26.389Z,101881.91
2018-11-02T12:24:55.733Z,101882.67
2018-11-02T12:27:25.231Z,101890.67
2018-11-02T12:29:56.736Z,101888.14
2018-11-02T12:32:26.273Z,101891.74
2018-11-02T12:35:14.224Z,101897.50
2018-11-02T12:37:49.148Z,101901.37
2018-11-02T12:40:21.605Z,101910.28
2018-11-02T12:42:51.602Z,101913.94
2018-11-02T12:45:33.476Z,101911.77
2018-11-02T12:48:25.892Z,101906.05
2018-11-02T12:50:56.846Z,101917.53
2018-11-02T12:53:33.504Z,101917.23
2018-11-02T12:56:15.086Z,101914.98
2018-11-02T12:58:49.977Z,101908.77
2018-11-02T13:01:24.531Z,101904.80
2018-11-02T13:04:13.361Z,101907.50
2018-11-02T13:06:42.756Z,101911.16
2018-11-02T13:09:12.045Z,101916.36
2018-11-02T13:11:46.623Z,101915.15
2018-11-02T13:14:22.044Z,101918.37
2018-11-02T13:17:01.579Z,101925.23
2018-11-02T13:19:32.872Z,101926.61
2018-11-02T13:22:02.613Z,101925.88
2018-11-02T13:24:32.940Z,101932.33
2018-11-02T13:27:04.523Z,101932.67
2018-11-02T13:29:33.580Z,101938.97
2018-11-02T13:32:02.645Z,101935.42
2018-11-02T13:34:34.697Z,101938.55
2018-11-02T13:37:03.655Z,101937.80
2018-11-02T13:39:32.487Z,101941.06
2018-11-02T13:42:01.945Z,101947.47
2018-11-02T13:44:31.409Z,101946.94
2018-11-02T13:47:22.743Z,101951.27
2018-11-02T13:49:55.793Z,101955.28
2018-11-02T13:52:25.230Z,101957.73
2018-11-02T13:54:54.792Z,101970.70
2018-11-02T13:57:25.201Z,101967.19
2018-11-02T13:59:54.533Z,101968.25
2018-11-02T14:02:25.953Z,101977.77
2018-11-02T14:05:05.720Z,101983.80
2018-11-02T14:07:36.250Z,101979.11
2018-11-02T14:10:12.051Z,101984.95
2018-11-02T14:12:52.338Z,101990.84
2018-11-02T14:15:32.652Z,102000.44
2018-11-02T14:18:02.597Z,102005.52
2018-11-02T14:20:41.041Z,102013.09
2018-11-02T14:23:09.988Z,102019.13
2018-11-02T14:25:51.721Z,102020.31
2018-11-02T14:28:24.522Z,102027.62
2018-11-02T14:30:55.471Z,102034.80
2018-11-02T14:33:25.386Z,102037.34
2018-11-02T14:35:54.292Z,102042.12
2018-11-02T14:38:24.353Z,102045.69
2018-11-02T14:40:57.520Z,102052.63
2018-11-02T14:43:26.713Z,102052.89
2018-11-02T14:45:57.889Z,102060.68
2018-11-02T14:48:28.337Z,102069.44
2018-11-02T14:51:02.067Z,102076.92
2018-11-02T14:53:36.736Z,102069.31
2018-11-02T14:56:22.672Z,102089.00
2018-11-02T14:58:57.448Z,102092.93
2018-11-02T15:01:27.088Z,102090.35
2018-11-02T15:04:01.341Z,102102.97
2018-11-02T15:06:32.710Z,102099.44
2018-11-02T15:09:09.497Z,102104.95
2018-11-02T15:11:38.507Z,102108.91
2018-11-02T15:14:11.189Z,102109.45
2018-11-02T15:16:40.153Z,102108.53
2018-11-02T15:19:13.921Z,102113.75
2018-11-02T15:21:43.842Z,102120.02
2018-11-02T15:24:18.921Z,102122.95
2018-11-02T15:26:56.632Z,102122.72
2018-11-02T15:29:33.829Z,102127.94
2018-11-02T15:32:03.439Z,102130.45
2018-11-02T15:34:32.863Z,102126.90
2018-11-02T15:37:03.351Z,102127.77
2018-11-02T15:39:38.607Z,102125.66
2018-11-02T15:42:08.963Z,102119.80
2018-11-02T15:44:41.625Z,102119.59
2018-11-02T15:47:10.825Z,102113.27
2018-11-02T15:49:52.584Z,102112.40
2018-11-02T15:52:22.039Z,102116.72
2018-11-02T15:54:52.427Z,102126.64
2018-11-02T15:57:21.457Z,102126.55
2018-11-02T15:59:52.416Z,102123.85
2018-11-02T16:02:22.443Z,102125.55
2018-11-02T16:04:52.487Z,102128.87
2018-11-02T16:07:22.519Z,102129.89
2018-11-02T16:09:54.715Z,102139.33
2018-11-02T16:12:26.887Z,102141.73
2018-11-02T16:14:57.619Z,102145.37
2018-11-02T16:17:27.858Z,102148.13
2018-11-02T16:19:58.874Z,102148.18
2018-11-02T16:22:48.231Z,102147.90
2018-11-02T16:25:18.198Z,102150.80
2018-11-02T16:27:49.132Z,102156.44
2018-11-02T16:30:19.426Z,102152.68
2018-11-02T16:32:53.119Z,102152.31
2018-11-02T16:35:22.024Z,102157.20
2018-11-02T16:37:56.852Z,102158.67
2018-11-02T16:40:26.893Z,102164.01
2018-11-02T16:42:57.853Z,102171.44
2018-11-02T16:45:32.672Z,102174.25
2018-11-02T16:48:02.863Z,102181.61
2018-11-02T16:50:33.979Z,102189.11
2018-11-02T16:53:02.823Z,102193.72
2018-11-02T16:55:46.227Z,102194.96
2018-11-02T16:58:17.197Z,102204.06
2018-11-02T17:00:55.704Z,102206.69
2018-11-02T17:03:24.685Z,102216.80
2018-11-02T17:05:57.883Z,102218.83
2018-11-02T17:08:32.428Z,102228.18
2018-11-02T17:11:06.864Z,102231.53
2018-11-02T17:13:35.910Z,102236.42
2018-11-02T17:16:10.937Z,102246.89
2018-11-02T17:18:40.361Z,102251.67
2018-11-02T17:21:11.697Z,102262.98
2018-11-02T17:23:41.153Z,102257.67
2018-11-02T17:26:11.612Z,102259.60
2018-11-02T17:28:44.802Z,102259.02
2018-11-02T17:31:19.920Z,102264.91
2018-11-02T17:36:44.998Z,102281.45
2018-11-02T17:39:25.867Z,102289.95
2018-11-02T17:41:57.277Z,102283.45
2018-11-02T17:44:26.713Z,102285.20
2018-11-02T17:47:05.947Z,102288.70
2018-11-02T17:49:44.615Z,102298.31
2018-11-02T17:55:20.287Z,102302.31
2018-11-02T17:57:53.208Z,102305.98
2018-11-02T18:00:23.159Z,102316.55
2018-11-02T18:03:00.324Z,102319.80
2018-11-02T18:05:31.370Z,102323.83
2018-11-02T18:08:16.701Z,102330.84
2018-11-02T18:10:47.656Z,102334.84
2018-11-02T18:13:17.600Z,102338.12
2018-11-02T18:15:51.391Z,102336.07
2018-11-02T18:18:25.750Z,102337.14
2018-11-02T18:20:56.645Z,102343.03
2018-11-02T18:23:27.568Z,102344.05
2018-11-02T18:25:56.898Z,102352.56
2018-11-02T18:28:26.555Z,102361.22
2018-11-02T18:30:58.920Z,102360.34
2018-11-02T18:33:31.244Z,102368.28
2018-11-02T18:36:01.332Z,102370.84
2018-11-02T18:38:30.372Z,102371.35
2018-11-02T18:40:59.444Z,102379.25
2018-11-02T18:43:34.310Z,102379.09
2018-11-02T18:46:05.465Z,102393.45
2018-11-02T18:48:36.358Z,102396.33
2018-11-02T18:51:17.760Z,102400.06
2018-11-02T18:56:44.375Z,102400.02
2018-11-02T18:59:14.846Z,102405.14
2018-11-02T19:01:45.782Z,102409.15
2018-11-02T19:04:37.238Z,102405.93
2018-11-02T19:07:22.328Z,102412.73
2018-11-02T19:09:52.391Z,102421.31
2018-11-02T19:12:22.266Z,102418.41
2018-11-02T19:14:51.271Z,102420.09
2018-11-02T19:17:22.216Z,102423.84
2018-11-02T19:19:53.339Z,102426.03
2018-11-02T19:22:22.236Z,102432.56
2018-11-02T19:24:57.159Z,102434.09
2018-11-02T19:27:28.173Z,102433.07
2018-11-02T19:30:10.422Z,102432.78
2018-11-02T19:32:40.399Z,102432.94
2018-11-02T19:35:14.023Z,102434.11
2018-11-02T19:37:47.417Z,102432.43
2018-11-02T19:40:26.656Z,102430.28
2018-11-02T19:42:56.606Z,102438.64
2018-11-02T19:45:28.595Z,102435.97
2018-11-02T19:48:04.900Z,102430.75
2018-11-02T19:50:37.718Z,102444.17
2018-11-02T19:53:08.673Z,102444.84
2018-11-02T19:55:38.685Z,102444.33
2018-11-02T19:58:12.190Z,102453.22
2018-11-02T20:00:45.523Z,102452.22
2018-11-02T20:03:17.435Z,102457.08
2018-11-02T20:05:56.878Z,102463.27
2018-11-02T20:08:26.783Z,102463.27
2018-11-02T20:10:55.745Z,102466.70
2018-11-02T20:13:34.378Z,102462.23
2018-11-02T20:16:03.476Z,102466.59
2018-11-02T20:18:36.942Z,102474.05
2018-11-02T20:21:13.542Z,102470.72
2018-11-02T20:23:43.009Z,102470.87
2018-11-02T20:26:15.311Z,102468.16
2018-11-02T20:28:51.822Z,102475.38
2018-11-02T20:31:22.190Z,102471.44
2018-11-02T20:33:57.148Z,102474.20
2018-11-02T20:36:27.054Z,102470.19
2018-11-02T20:38:58.185Z,102474.04
2018-11-02T20:41:37.728Z,102477.59
2018-11-02T20:44:08.166Z,102472.22
2018-11-02T20:46:37.212Z,102474.73
2018-11-02T20:49:07.236Z,102483.93
2018-11-02T20:51:47.419Z,102476.53
2018-11-02T20:54:16.346Z,102474.50
2018-11-02T20:56:52.620Z,102476.20
2018-11-02T20:59:21.581Z,102484.27
2018-11-02T21:01:50.520Z,102483.46
2018-11-02T21:04:38.196Z,102492.98
2018-11-02T21:07:23.344Z,102496.45
2018-11-02T21:09:55.731Z,102499.33
2018-11-02T21:12:24.697Z,102505.30
2018-11-02T21:15:04.986Z,102501.83
2018-11-02T21:17:33.704Z,102512.87
2018-11-02T21:20:02.700Z,102512.97
2018-11-02T21:22:37.110Z,102512.70
2018-11-02T21:25:08.733Z,102515.20
2018-11-02T21:27:37.852Z,102509.31
2018-11-02T21:30:11.752Z,102512.35
2018-11-02T21:32:44.743Z,102514.39
2018-11-02T21:35:17.442Z,102513.12
2018-11-02T21:37:58.556Z,102515.23
2018-11-02T21:40:27.597Z,102516.81
2018-11-02T21:43:01.668Z,102518.47
2018-11-02T21:45:32.578Z,102512.44
2018-11-02T21:48:14.304Z,102510.72
2018-11-02T21:51:02.138Z,102512.70
2018-11-02T21:53:35.226Z,102507.67
2018-11-02T21:59:02.733Z,102517.94
2018-11-02T22:01:36.366Z,102517.20
2018-11-02T22:04:09.207Z,102527.84
2018-11-02T22:06:43.863Z,102527.36
2018-11-02T22:09:23.338Z,102528.63
2018-11-02T22:11:52.246Z,102535.80
2018-11-02T22:14:33.625Z,102539.47
2018-11-02T22:17:02.549Z,102535.94
2018-11-02T22:19:34.935Z,102541.36
2018-11-02T22:25:08.410Z,102544.41
2018-11-02T22:27:56.504Z,102544.03
2018-11-02T22:30:31.548Z,102551.76
2018-11-02T22:33:00.555Z,102544.41
2018-11-02T22:35:29.504Z,102544.97
2018-11-02T22:37:59.474Z,102539.45
2018-11-02T22:40:35.107Z,102542.32
2018-11-02T22:43:04.084Z,102548.06
2018-11-02T22:45:37.135Z,102544.80
2018-11-02T22:48:11.565Z,102551.36
2018-11-02T22:50:42.580Z,102550.64
2018-11-02T22:53:14.621Z,102553.52
2018-11-02T22:55:56.508Z,102546.80
2018-11-02T22:58:32.896Z,102542.88
2018-11-02T23:04:01.185Z,102550.95
2018-11-02T23:06:30.454Z,102553.46
2018-11-02T23:08:59.453Z,102554.80
2018-11-02T23:14:35.516Z,102562.00
2018-11-02T23:17:04.501Z,102561.67
2018-11-02T23:19:33.370Z,102557.80
2018-11-02T23:22:02.408Z,102552.18
2018-11-02T23:24:39.914Z,102551.87
2018-11-02T23:30:11.211Z,102556.17
2018-11-02T23:32:40.226Z,102553.59
2018-11-02T23:35:09.537Z,102555.05
2018-11-02T23:38:02.101Z,102551.94
2018-11-02T23:40:31.046Z,102552.67
2018-11-02T23:43:00.232Z,102553.52
2018-11-02T23:45:29.108Z,102553.72
2018-11-02T23:48:03.758Z,102552.64
2018-11-02T23:50:32.646Z,102552.34
2018-11-02T23:53:02.864Z,102552.64
2018-11-02T23:55:48.277Z,102560.66
2018-11-02T23:58:17.274Z,102547.51
